Time;durP1;ratioP1;P1;durP2;ratioP2;P2;SDS_P1;SDS_P2;PMS_P1;PMS_P2;Temp;Humidity;BMP_temperature;BMP_pressure;BME280_temperature;BME280_humidity;BME280_pressure;Samples;Min_cycle;Max_cycle;Signal;HPM_P1;HPM_P2
2021/12/02 00:02:09;;;;;;;8.23;4.70;;;;;;;;;;5051335;28;20202;-88
2021/12/02 00:04:38;;;;;;;12.13;7.80;;;;;;;;;;5051247;28;20213;-88
2021/12/02 00:07:06;;;;;;;6.53;4.73;;;;;;;;;;5051184;28;20198;-89
2021/12/02 00:09:34;;;;;;;23.10;11.03;;;;;;;;;;5050964;28;20247;-89
2021/12/02 00:12:02;;;;;;;9.23;6.73;;;;;;;;;;5051207;28;20282;-88
2021/12/02 00:14:39;;;;;;;10.07;6.10;;;;;;;;;;5051239;28;20241;-88
2021/12/02 00:17:11;;;;;;;3.93;3.33;;;;;;;;;;5051253;28;20190;-88
2021/12/02 00:22:27;;;;;;;2.70;2.47;;;;;;;;;;5050973;28;20231;-88
2021/12/02 00:24:57;;;;;;;3.13;2.93;;;;;;;;;;5050861;28;20190;-88
2021/12/02 00:27:25;;;;;;;2.60;2.40;;;;;;;;;;5050802;28;20198;-88
2021/12/02 00:29:57;;;;;;;3.10;2.67;;;;;;;;;;5050946;28;20729;-88
2021/12/02 00:32:27;;;;;;;3.43;3.13;;;;;;;;;;5050684;28;20206;-88
2021/12/02 00:34:55;;;;;;;4.20;3.13;;;;;;;;;;5050757;28;20643;-88
2021/12/02 00:37:23;;;;;;;6.57;4.33;;;;;;;;;;5050914;27;20219;-88
2021/12/02 00:39:52;;;;;;;11.17;5.70;;;;;;;;;;5050767;28;20209;-89
2021/12/02 00:42:20;;;;;;;6.30;4.23;;;;;;;;;;5050831;28;20229;-88
2021/12/02 00:44:47;;;;;;;3.60;2.90;;;;;;;;;;5050526;28;20222;-89
2021/12/02 00:47:17;;;;;;;4.60;3.27;;;;;;;;;;5050589;28;20206;-88
2021/12/02 00:49:47;;;;;;;3.80;2.97;;;;;;;;;;5050355;28;20324;-88
2021/12/02 00:52:15;;;;;;;3.83;2.30;;;;;;;;;;5050831;28;20205;-88
2021/12/02 00:54:43;;;;;;;3.67;2.97;;;;;;;;;;5050702;28;20257;-89
2021/12/02 00:57:12;;;;;;;2.93;2.47;;;;;;;;;;5050569;28;20194;-88
2021/12/02 00:59:40;;;;;;;3.23;2.80;;;;;;;;;;5050599;28;20578;-88
2021/12/02 01:02:08;;;;;;;4.53;2.90;;;;;;;;;;5049325;28;20201;-88
2021/12/02 01:04:37;;;;;;;3.87;3.30;;;;;;;;;;5050378;28;20202;-88
2021/12/02 01:07:05;;;;;;;4.13;3.50;;;;;;;;;;5050359;28;20197;-88
2021/12/02 01:09:32;;;;;;;3.93;3.00;;;;;;;;;;5050354;28;20292;-88
2021/12/02 01:12:00;;;;;;;4.83;3.80;;;;;;;;;;5050016;28;20229;-88
2021/12/02 01:14:27;;;;;;;6.43;4.20;;;;;;;;;;5050303;28;20190;-88
2021/12/02 01:16:58;;;;;;;6.10;3.97;;;;;;;;;;5050107;28;20202;-88
2021/12/02 01:19:25;;;;;;;4.27;3.47;;;;;;;;;;5050296;28;20273;-87
2021/12/02 01:21:54;;;;;;;3.87;3.40;;;;;;;;;;5049932;28;20201;-89
2021/12/02 01:24:24;;;;;;;4.83;3.67;;;;;;;;;;5049966;28;20208;-89
2021/12/02 01:26:53;;;;;;;3.43;2.77;;;;;;;;;;5050227;28;20197;-88
2021/12/02 01:29:23;;;;;;;5.50;3.27;;;;;;;;;;5049965;28;20202;-89
2021/12/02 01:31:52;;;;;;;7.93;3.90;;;;;;;;;;5049955;28;20218;-89
2021/12/02 01:34:24;;;;;;;6.23;2.97;;;;;;;;;;5050021;28;20190;-88
2021/12/02 01:36:54;;;;;;;3.87;3.13;;;;;;;;;;5049830;28;20200;-88
2021/12/02 01:39:21;;;;;;;4.77;3.30;;;;;;;;;;5049854;28;20213;-88
2021/12/02 01:41:50;;;;;;;3.37;3.07;;;;;;;;;;5049561;28;20198;-88
2021/12/02 01:44:20;;;;;;;4.00;3.60;;;;;;;;;;5049783;28;20198;-88
2021/12/02 01:46:49;;;;;;;3.23;2.93;;;;;;;;;;5049692;28;20233;-88
2021/12/02 01:49:18;;;;;;;4.07;3.20;;;;;;;;;;5049178;28;20194;-87
2021/12/02 01:51:47;;;;;;;2.67;2.47;;;;;;;;;;5049321;28;20206;-88
2021/12/02 01:54:17;;;;;;;2.20;2.00;;;;;;;;;;5049551;28;20206;-88
2021/12/02 01:56:46;;;;;;;2.80;2.53;;;;;;;;;;5049806;28;20186;-88
2021/12/02 01:59:16;;;;;;;2.60;2.40;;;;;;;;;;5049684;28;20670;-87
2021/12/02 02:01:45;;;;;;;4.17;3.77;;;;;;;;;;5049489;28;20670;-88
2021/12/02 02:04:13;;;;;;;6.67;4.20;;;;;;;;;;5049336;28;20255;-88
2021/12/02 02:06:42;;;;;;;4.93;4.40;;;;;;;;;;5049501;28;20545;-88
2021/12/02 02:09:11;;;;;;;6.33;4.20;;;;;;;;;;5049214;28;20723;-87
2021/12/02 02:11:40;;;;;;;4.70;3.87;;;;;;;;;;5049112;28;20217;-88
2021/12/02 02:14:09;;;;;;;4.57;3.60;;;;;;;;;;5051386;28;20197;-88
2021/12/02 02:16:38;;;;;;;3.80;3.27;;;;;;;;;;5052638;28;20288;-88
2021/12/02 02:19:07;;;;;;;2.67;2.47;;;;;;;;;;5052784;28;20198;-88
2021/12/02 02:21:36;;;;;;;3.87;3.47;;;;;;;;;;5052604;28;20200;-88
2021/12/02 02:24:08;;;;;;;11.27;4.77;;;;;;;;;;5052626;28;20670;-88
2021/12/02 02:26:36;;;;;;;7.67;4.63;;;;;;;;;;5052956;28;20216;-88
2021/12/02 02:29:06;;;;;;;6.63;4.77;;;;;;;;;;5052913;28;20194;-87
2021/12/02 02:31:34;;;;;;;6.37;4.93;;;;;;;;;;5052681;28;20194;-88
2021/12/02 02:34:02;;;;;;;4.17;3.77;;;;;;;;;;5052387;28;20209;-88
2021/12/02 02:36:31;;;;;;;5.40;4.87;;;;;;;;;;5052379;28;20194;-88
2021/12/02 02:39:02;;;;;;;3.77;2.20;;;;;;;;;;5052669;28;20197;-87
2021/12/02 02:41:32;;;;;;;2.50;2.30;;;;;;;;;;5052327;28;20186;-88
2021/12/02 02:44:00;;;;;;;3.33;2.97;;;;;;;;;;5052245;28;20205;-87
2021/12/02 02:46:30;;;;;;;4.83;3.30;;;;;;;;;;5052266;28;20244;-88
2021/12/02 02:48:58;;;;;;;4.00;3.70;;;;;;;;;;5052067;28;20210;-88
2021/12/02 02:51:26;;;;;;;13.37;11.07;;;;;;;;;;5052067;28;20238;-88
2021/12/02 02:53:56;;;;;;;14.63;11.30;;;;;;;;;;5052499;28;20661;-88
2021/12/02 02:56:28;;;;;;;13.23;10.00;;;;;;;;;;5052076;28;20229;-87
2021/12/02 02:59:03;;;;;;;10.73;8.67;;;;;;;;;;5052097;28;20661;-88
2021/12/02 03:01:47;;;;;;;10.67;7.43;;;;;;;;;;5051906;28;20235;-88
2021/12/02 03:04:24;;;;;;;5.90;4.53;;;;;;;;;;5051878;28;20217;-87
2021/12/02 03:06:56;;;;;;;7.70;4.97;;;;;;;;;;5051692;28;20191;-88
2021/12/02 03:09:45;;;;;;;5.77;4.30;;;;;;;;;;5051622;28;20239;-86
2021/12/02 03:12:18;;;;;;;5.43;4.80;;;;;;;;;;5050879;28;20217;-85
2021/12/02 03:16:36;;;;;;;4.97;4.37;;;;;;;;;;5042856;28;20218;-85
2021/12/02 03:17:39;;;;;;;4.60;4.20;;;;;;;;;;5033718;28;20189;-85
2021/12/02 03:20:07;;;;;;;4.70;4.30;;;;;;;;;;5031232;28;20210;-85
2021/12/02 03:22:35;;;;;;;6.27;3.80;;;;;;;;;;5031476;28;20674;-86
2021/12/02 03:25:02;;;;;;;3.63;3.33;;;;;;;;;;5030120;28;20209;-86
2021/12/02 03:27:31;;;;;;;4.47;3.57;;;;;;;;;;5031124;28;20246;-86
2021/12/02 03:29:58;;;;;;;3.23;2.90;;;;;;;;;;5036703;28;20284;-85
2021/12/02 03:32:25;;;;;;;8.77;3.63;;;;;;;;;;5049996;28;20226;-85
2021/12/02 03:34:53;;;;;;;9.70;7.93;;;;;;;;;;5050786;28;20233;-85
2021/12/02 03:37:20;;;;;;;38.80;34.53;;;;;;;;;;5051152;28;20289;-85
2021/12/02 03:39:47;;;;;;;11.10;9.40;;;;;;;;;;5050768;28;20208;-85
2021/12/02 03:42:14;;;;;;;7.93;7.10;;;;;;;;;;5050800;28;20254;-85
2021/12/02 03:44:43;;;;;;;8.73;7.83;;;;;;;;;;5050749;28;20244;-85
2021/12/02 03:47:11;;;;;;;7.47;6.40;;;;;;;;;;5048458;28;20205;-86
2021/12/02 03:49:40;;;;;;;7.83;6.33;;;;;;;;;;5050820;28;20657;-86
2021/12/02 03:52:08;;;;;;;7.17;5.00;;;;;;;;;;5050839;28;20312;-87
2021/12/02 03:54:35;;;;;;;6.73;5.40;;;;;;;;;;5051074;28;20221;-85
2021/12/02 03:57:03;;;;;;;5.87;4.57;;;;;;;;;;5050621;28;20198;-86
2021/12/02 03:59:31;;;;;;;6.27;4.90;;;;;;;;;;5050671;28;20233;-87
2021/12/02 04:02:00;;;;;;;5.67;4.37;;;;;;;;;;5050547;28;20194;-86
2021/12/02 04:04:28;;;;;;;4.63;4.23;;;;;;;;;;5050587;28;20229;-86
2021/12/02 04:06:55;;;;;;;5.87;3.17;;;;;;;;;;5050058;28;20202;-85
2021/12/02 04:09:24;;;;;;;3.63;2.87;;;;;;;;;;5050459;28;20198;-86
2021/12/02 04:11:57;;;;;;;3.17;2.60;;;;;;;;;;5050112;28;20229;-85
2021/12/02 04:14:27;;;;;;;45.10;25.43;;;;;;;;;;5050857;28;20217;-87
2021/12/02 04:16:57;;;;;;;50.17;30.13;;;;;;;;;;5050210;28;20288;-86
2021/12/02 04:19:26;;;;;;;84.60;46.93;;;;;;;;;;5050400;28;20660;-86
2021/12/02 04:22:01;;;;;;;18.57;10.60;;;;;;;;;;5045223;28;20724;-85
2021/12/02 04:24:28;;;;;;;11.10;7.83;;;;;;;;;;5048668;28;20217;-85
2021/12/02 04:26:56;;;;;;;23.97;14.77;;;;;;;;;;5043406;28;20204;-85
2021/12/02 04:29:24;;;;;;;19.80;12.67;;;;;;;;;;5047206;28;20281;-86
2021/12/02 04:31:52;;;;;;;24.47;14.23;;;;;;;;;;5043823;27;20199;-85
2021/12/02 04:34:19;;;;;;;13.20;9.00;;;;;;;;;;5043014;27;20225;-85
2021/12/02 04:36:48;;;;;;;11.87;7.20;;;;;;;;;;5046423;28;20259;-85
2021/12/02 04:39:16;;;;;;;8.37;6.57;;;;;;;;;;5037064;28;20190;-85
2021/12/02 04:41:43;;;;;;;6.47;4.67;;;;;;;;;;5040195;28;20240;-85
2021/12/02 04:44:10;;;;;;;3.87;3.47;;;;;;;;;;5040384;28;20190;-86
2021/12/02 04:46:38;;;;;;;8.30;6.57;;;;;;;;;;5046007;28;20202;-85
2021/12/02 04:49:05;;;;;;;18.97;13.87;;;;;;;;;;5049117;28;20251;-86
2021/12/02 04:51:32;;;;;;;23.17;15.27;;;;;;;;;;5049091;28;20317;-85
2021/12/02 04:54:01;;;;;;;11.70;8.37;;;;;;;;;;5049169;28;20221;-84
2021/12/02 04:56:28;;;;;;;15.90;11.77;;;;;;;;;;5048900;28;20194;-85
2021/12/02 04:58:56;;;;;;;12.43;8.43;;;;;;;;;;5044204;28;20198;-85
2021/12/02 05:01:23;;;;;;;7.60;5.87;;;;;;;;;;5028960;28;20236;-84
2021/12/02 05:03:50;;;;;;;6.57;5.87;;;;;;;;;;5028820;28;20259;-84
2021/12/02 05:06:17;;;;;;;5.23;3.93;;;;;;;;;;5028790;28;20230;-84
2021/12/02 05:08:45;;;;;;;7.73;5.37;;;;;;;;;;5028865;28;20198;-85
2021/12/02 05:11:13;;;;;;;7.33;5.67;;;;;;;;;;5028672;28;20199;-85
2021/12/02 05:13:41;;;;;;;10.97;7.10;;;;;;;;;;5029292;28;20344;-86
2021/12/02 05:16:08;;;;;;;10.17;7.00;;;;;;;;;;5034443;28;20198;-86
2021/12/02 05:18:36;;;;;;;6.80;4.93;;;;;;;;;;5049720;28;20202;-86
2021/12/02 05:21:03;;;;;;;5.17;4.67;;;;;;;;;;5049243;28;20237;-85
2021/12/02 05:23:30;;;;;;;94.70;85.20;;;;;;;;;;5049155;28;20724;-86
2021/12/02 05:25:57;;;;;;;20.03;18.20;;;;;;;;;;5046897;28;20198;-85
2021/12/02 05:28:26;;;;;;;9.57;8.37;;;;;;;;;;5028929;28;20194;-85
2021/12/02 05:30:54;;;;;;;13.23;10.10;;;;;;;;;;5028836;28;20207;-86
2021/12/02 05:33:21;;;;;;;9.10;7.43;;;;;;;;;;5028685;28;20230;-86
2021/12/02 05:35:48;;;;;;;4.67;4.13;;;;;;;;;;5029199;28;20203;-85
2021/12/02 05:38:16;;;;;;;3.77;3.10;;;;;;;;;;5029396;28;20209;-86
2021/12/02 05:40:43;;;;;;;13.93;8.87;;;;;;;;;;5029363;28;20263;-85
2021/12/02 05:43:10;;;;;;;13.57;8.80;;;;;;;;;;5029668;28;20194;-86
2021/12/02 05:45:39;;;;;;;12.67;7.63;;;;;;;;;;5029094;28;20663;-85
2021/12/02 05:48:06;;;;;;;4.97;4.43;;;;;;;;;;5028813;28;20659;-86
2021/12/02 05:50:34;;;;;;;7.40;4.90;;;;;;;;;;5028884;28;20243;-86
2021/12/02 05:53:04;;;;;;;12.17;7.57;;;;;;;;;;5029103;28;20602;-86
2021/12/02 05:55:31;;;;;;;17.63;8.93;;;;;;;;;;5029091;28;20205;-85
2021/12/02 05:57:58;;;;;;;12.83;9.60;;;;;;;;;;5029342;28;20203;-85
2021/12/02 06:00:26;;;;;;;46.97;28.27;;;;;;;;;;5029218;28;20608;-86
2021/12/02 06:02:55;;;;;;;37.70;21.43;;;;;;;;;;5029044;28;20195;-86
2021/12/02 06:05:22;;;;;;;11.47;8.67;;;;;;;;;;5028904;28;20683;-86
2021/12/02 06:07:52;;;;;;;6.90;5.63;;;;;;;;;;5028961;28;20670;-86
2021/12/02 06:10:19;;;;;;;5.13;4.07;;;;;;;;;;5028852;28;20198;-86
2021/12/02 06:12:47;;;;;;;22.53;20.23;;;;;;;;;;5029055;28;20610;-85
2021/12/02 06:15:14;;;;;;;19.57;15.43;;;;;;;;;;5028810;28;20289;-86
2021/12/02 06:17:42;;;;;;;20.50;14.27;;;;;;;;;;5028974;28;20255;-86
2021/12/02 06:20:14;;;;;;;17.37;13.87;;;;;;;;;;5028845;28;20195;-85
2021/12/02 06:22:41;;;;;;;17.97;13.53;;;;;;;;;;5029056;28;20361;-85
2021/12/02 06:27:59;;;;;;;8.63;7.37;;;;;;;;;;5028423;28;20195;-85
2021/12/02 06:30:27;;;;;;;8.00;6.33;;;;;;;;;;5028607;28;20195;-85
2021/12/02 06:32:54;;;;;;;6.60;5.63;;;;;;;;;;5028794;28;20638;-85
2021/12/02 06:35:23;;;;;;;6.07;4.53;;;;;;;;;;5028826;28;20302;-85
2021/12/02 06:37:52;;;;;;;6.60;5.50;;;;;;;;;;5028436;28;20731;-85
2021/12/02 06:40:19;;;;;;;6.37;4.50;;;;;;;;;;5028439;28;20238;-85
2021/12/02 06:42:46;;;;;;;4.60;3.60;;;;;;;;;;5028778;28;20203;-85
2021/12/02 06:45:15;;;;;;;7.53;5.47;;;;;;;;;;5028580;28;20226;-85
2021/12/02 06:47:42;;;;;;;5.90;4.07;;;;;;;;;;5028716;28;20628;-85
2021/12/02 06:50:13;;;;;;;7.03;3.97;;;;;;;;;;5028145;28;21001;-86
2021/12/02 06:52:42;;;;;;;4.17;3.57;;;;;;;;;;5028875;28;20626;-86
2021/12/02 06:55:10;;;;;;;40.27;22.60;;;;;;;;;;5028263;28;20687;-86
2021/12/02 06:57:37;;;;;;;33.23;23.00;;;;;;;;;;5028468;28;20231;-86
2021/12/02 07:00:08;;;;;;;39.23;26.63;;;;;;;;;;5028637;28;20245;-86
2021/12/02 07:02:36;;;;;;;36.87;26.50;;;;;;;;;;5032098;28;20183;-86
2021/12/02 07:05:04;;;;;;;21.63;17.87;;;;;;;;;;5031961;28;20226;-86
2021/12/02 07:07:35;;;;;;;26.10;20.03;;;;;;;;;;5032080;28;20242;-86
2021/12/02 07:10:05;;;;;;;31.50;25.33;;;;;;;;;;5031541;28;20203;-86
2021/12/02 07:12:33;;;;;;;27.77;22.43;;;;;;;;;;5031914;28;20262;-86
2021/12/02 07:15:05;;;;;;;19.50;15.37;;;;;;;;;;5031303;28;20223;-86
2021/12/02 07:17:33;;;;;;;18.77;13.87;;;;;;;;;;5030580;28;20202;-86
2021/12/02 07:20:01;;;;;;;19.20;14.10;;;;;;;;;;5031317;28;20195;-85
2021/12/02 07:22:28;;;;;;;27.40;20.80;;;;;;;;;;5031584;28;20199;-86
2021/12/02 07:24:56;;;;;;;28.07;22.23;;;;;;;;;;5031518;28;20626;-87
2021/12/02 07:27:25;;;;;;;24.03;19.23;;;;;;;;;;5031430;28;20255;-87
2021/12/02 07:29:52;;;;;;;27.70;20.87;;;;;;;;;;5031263;28;20230;-87
2021/12/02 07:32:19;;;;;;;26.90;19.47;;;;;;;;;;5031396;28;20293;-86
2021/12/02 07:34:47;;;;;;;25.20;21.80;;;;;;;;;;5031206;28;20254;-87
2021/12/02 07:37:16;;;;;;;24.10;17.37;;;;;;;;;;5031227;28;20202;-87
2021/12/02 07:39:44;;;;;;;30.17;21.53;;;;;;;;;;5031461;28;20206;-87
2021/12/02 07:42:11;;;;;;;22.83;17.27;;;;;;;;;;5031349;28;20201;-87
2021/12/02 07:44:40;;;;;;;17.30;13.80;;;;;;;;;;5031380;28;20195;-85
2021/12/02 07:47:08;;;;;;;17.90;12.73;;;;;;;;;;5031106;28;20298;-87
2021/12/02 07:49:35;;;;;;;11.20;8.63;;;;;;;;;;5030996;28;20238;-88
2021/12/02 07:52:03;;;;;;;16.50;11.73;;;;;;;;;;5031154;28;20287;-88
2021/12/02 07:54:33;;;;;;;10.80;9.70;;;;;;;;;;5031140;28;20309;-88
2021/12/02 07:57:00;;;;;;;11.10;9.33;;;;;;;;;;5031347;28;20199;-87
2021/12/02 07:59:28;;;;;;;10.30;8.60;;;;;;;;;;5031117;28;20691;-88
2021/12/02 08:02:00;;;;;;;13.27;8.80;;;;;;;;;;5030992;28;20209;-88
2021/12/02 08:04:28;;;;;;;11.47;8.60;;;;;;;;;;5030903;28;20229;-88
2021/12/02 08:06:56;;;;;;;9.00;7.10;;;;;;;;;;5031127;28;20202;-88
2021/12/02 08:09:23;;;;;;;9.33;7.10;;;;;;;;;;5031423;28;20238;-87
2021/12/02 08:11:50;;;;;;;9.20;6.83;;;;;;;;;;5030535;28;20246;-86
2021/12/02 08:14:18;;;;;;;7.37;6.23;;;;;;;;;;5030924;28;20262;-88
2021/12/02 08:16:46;;;;;;;5.87;5.37;;;;;;;;;;5031118;28;20588;-88
2021/12/02 08:19:14;;;;;;;9.00;6.13;;;;;;;;;;5030898;28;20225;-88
2021/12/02 08:21:42;;;;;;;6.60;5.93;;;;;;;;;;5030736;28;20285;-88
2021/12/02 08:24:09;;;;;;;8.97;6.77;;;;;;;;;;5030756;28;20194;-88
2021/12/02 08:26:36;;;;;;;7.70;7.00;;;;;;;;;;5030693;28;20194;-88
2021/12/02 08:29:05;;;;;;;7.03;5.93;;;;;;;;;;5030527;28;20667;-88
2021/12/02 08:31:32;;;;;;;8.40;6.30;;;;;;;;;;5030641;28;20199;-87
2021/12/02 08:34:00;;;;;;;5.97;4.83;;;;;;;;;;5030506;28;20262;-88
2021/12/02 08:36:40;;;;;;;4.93;4.50;;;;;;;;;;5030337;28;20195;-88
2021/12/02 08:39:10;;;;;;;5.13;4.50;;;;;;;;;;5031049;28;20193;-87
2021/12/02 08:41:43;;;;;;;4.73;4.23;;;;;;;;;;5030395;28;20220;-88
2021/12/02 08:44:10;;;;;;;5.00;4.20;;;;;;;;;;5030496;28;20199;-88
2021/12/02 08:46:37;;;;;;;6.27;4.70;;;;;;;;;;5030682;28;20240;-87
2021/12/02 08:49:04;;;;;;;6.40;4.87;;;;;;;;;;5030248;28;20244;-87
2021/12/02 08:51:33;;;;;;;7.83;6.20;;;;;;;;;;5029977;28;20234;-88
2021/12/02 08:54:00;;;;;;;5.33;4.83;;;;;;;;;;5030081;28;20313;-88
2021/12/02 08:56:28;;;;;;;5.23;4.30;;;;;;;;;;5030231;28;20202;-88
2021/12/02 08:58:55;;;;;;;5.47;4.77;;;;;;;;;;5030384;28;20199;-88
2021/12/02 09:01:23;;;;;;;7.13;5.67;;;;;;;;;;5030192;28;20664;-88
2021/12/02 09:03:50;;;;;;;7.63;5.20;;;;;;;;;;5030237;28;20210;-88
2021/12/02 09:06:21;;;;;;;5.97;4.93;;;;;;;;;;5030144;28;20230;-88
2021/12/02 09:08:53;;;;;;;7.27;5.43;;;;;;;;;;5030329;28;20723;-88
2021/12/02 09:11:20;;;;;;;6.93;5.80;;;;;;;;;;5030074;28;20664;-88
2021/12/02 09:13:48;;;;;;;7.67;5.80;;;;;;;;;;5029920;28;20645;-88
2021/12/02 09:16:15;;;;;;;5.67;4.37;;;;;;;;;;5029898;28;20199;-88
2021/12/02 09:18:43;;;;;;;8.37;6.43;;;;;;;;;;5029977;28;20290;-88
2021/12/02 09:21:10;;;;;;;5.87;5.33;;;;;;;;;;5029809;28;20285;-88
2021/12/02 09:23:38;;;;;;;8.00;6.77;;;;;;;;;;5029117;28;20195;-88
2021/12/02 09:26:07;;;;;;;7.67;6.87;;;;;;;;;;5029770;28;20198;-88
2021/12/02 09:28:34;;;;;;;6.07;5.17;;;;;;;;;;5029927;28;20218;-88
2021/12/02 09:31:01;;;;;;;8.03;7.23;;;;;;;;;;5029803;28;20191;-88
2021/12/02 09:33:29;;;;;;;9.87;7.53;;;;;;;;;;5030097;28;20252;-88
2021/12/02 09:35:56;;;;;;;8.97;7.07;;;;;;;;;;5029795;28;20275;-89
2021/12/02 09:38:23;;;;;;;11.70;9.30;;;;;;;;;;5029789;28;20248;-88
2021/12/02 09:40:51;;;;;;;11.30;8.73;;;;;;;;;;5029874;28;20263;-88
2021/12/02 09:43:20;;;;;;;10.20;8.00;;;;;;;;;;5029428;28;20727;-88
2021/12/02 09:45:47;;;;;;;9.53;7.90;;;;;;;;;;5029538;28;20194;-88
2021/12/02 09:48:14;;;;;;;9.07;7.37;;;;;;;;;;5029485;28;20226;-88
2021/12/02 09:50:52;;;;;;;10.87;9.73;;;;;;;;;;5029449;28;20272;-88
2021/12/02 09:53:22;;;;;;;16.03;11.83;;;;;;;;;;5029765;28;20559;-88
2021/12/02 09:55:56;;;;;;;15.90;11.73;;;;;;;;;;5029653;28;20286;-88
2021/12/02 09:58:26;;;;;;;13.50;10.73;;;;;;;;;;5029659;28;20216;-88
2021/12/02 10:00:58;;;;;;;23.57;18.67;;;;;;;;;;5029345;28;20187;-88
2021/12/02 10:03:31;;;;;;;10.50;9.17;;;;;;;;;;5029405;28;20718;-88
2021/12/02 10:06:06;;;;;;;10.67;8.87;;;;;;;;;;5029460;28;20191;-88
2021/12/02 10:08:37;;;;;;;9.60;8.07;;;;;;;;;;5029343;28;20189;-88
2021/12/02 10:11:06;;;;;;;10.23;7.83;;;;;;;;;;5029526;28;20199;-88
2021/12/02 10:13:43;;;;;;;11.13;7.97;;;;;;;;;;5029676;28;20279;-88
2021/12/02 10:16:22;;;;;;;28.27;17.60;;;;;;;;;;5029372;28;20647;-88
2021/12/02 10:18:54;;;;;;;15.70;10.60;;;;;;;;;;5029441;28;20187;-88
2021/12/02 10:21:29;;;;;;;28.97;23.70;;;;;;;;;;5029285;28;20278;-89
2021/12/02 10:23:56;;;;;;;19.27;14.37;;;;;;;;;;5029424;28;20285;-88
2021/12/02 10:26:24;;;;;;;32.20;20.67;;;;;;;;;;5030388;27;20195;-88
2021/12/02 10:28:53;;;;;;;16.10;9.80;;;;;;;;;;5029364;28;20198;-89
2021/12/02 10:31:24;;;;;;;10.90;7.67;;;;;;;;;;5029622;28;20275;-88
2021/12/02 10:33:55;;;;;;;64.67;39.97;;;;;;;;;;5029510;28;20281;-89
2021/12/02 10:36:26;;;;;;;20.07;11.60;;;;;;;;;;5032929;28;20187;-89
2021/12/02 10:38:56;;;;;;;23.57;14.53;;;;;;;;;;5032695;28;20234;-89
2021/12/02 10:41:25;;;;;;;61.10;37.47;;;;;;;;;;5032537;28;20268;-89
2021/12/02 10:44:16;;;;;;;12.23;9.90;;;;;;;;;;5032766;28;20206;-88
2021/12/02 10:47:00;;;;;;;12.57;9.83;;;;;;;;;;5032768;28;20187;-89
2021/12/02 10:49:28;;;;;;;14.30;12.43;;;;;;;;;;5032653;28;20559;-88
2021/12/02 10:51:57;;;;;;;14.80;10.93;;;;;;;;;;5032716;28;20622;-88
2021/12/02 10:54:26;;;;;;;12.67;11.33;;;;;;;;;;5032624;27;20226;-89
2021/12/02 10:56:55;;;;;;;11.13;8.17;;;;;;;;;;5032399;28;20233;-88
2021/12/02 10:59:39;;;;;;;12.40;8.23;;;;;;;;;;5032204;28;20283;-88
2021/12/02 11:02:08;;;;;;;15.13;12.10;;;;;;;;;;5032512;28;20199;-89
2021/12/02 11:04:39;;;;;;;14.93;11.00;;;;;;;;;;5032346;27;20209;-89
2021/12/02 11:07:11;;;;;;;16.73;14.87;;;;;;;;;;5032448;28;20203;-89
2021/12/02 11:09:40;;;;;;;10.97;9.50;;;;;;;;;;5032338;28;20214;-88
2021/12/02 11:12:25;;;;;;;7.40;6.70;;;;;;;;;;5032312;28;20698;-89
2021/12/02 11:15:06;;;;;;;9.20;8.30;;;;;;;;;;5031979;28;20314;-88
2021/12/02 11:17:36;;;;;;;12.20;8.93;;;;;;;;;;5032328;27;20217;-88
2021/12/02 11:20:07;;;;;;;6.93;6.20;;;;;;;;;;5032164;28;20236;-88
2021/12/02 11:22:35;;;;;;;20.80;16.70;;;;;;;;;;5031951;28;20203;-88
2021/12/02 11:25:03;;;;;;;10.57;7.83;;;;;;;;;;5032008;27;20663;-88
2021/12/02 11:27:35;;;;;;;8.27;6.73;;;;;;;;;;5031996;28;20215;-89
2021/12/02 11:30:08;;;;;;;8.93;7.67;;;;;;;;;;5031901;28;20228;-88
2021/12/02 11:32:40;;;;;;;8.93;7.30;;;;;;;;;;5032295;28;20185;-87
2021/12/02 11:35:19;;;;;;;12.33;11.07;;;;;;;;;;5032269;28;20212;-88
2021/12/02 11:37:48;;;;;;;11.47;7.17;;;;;;;;;;5031536;28;20212;-88
2021/12/02 11:40:17;;;;;;;11.67;8.37;;;;;;;;;;5031933;28;20644;-88
2021/12/02 11:42:45;;;;;;;9.60;7.10;;;;;;;;;;5031898;28;20702;-88
2021/12/02 11:45:16;;;;;;;14.77;10.70;;;;;;;;;;5031886;28;20205;-88
2021/12/02 11:47:43;;;;;;;14.70;12.40;;;;;;;;;;5031025;28;20187;-88
2021/12/02 11:50:12;;;;;;;14.33;12.77;;;;;;;;;;5031247;28;20239;-88
2021/12/02 11:52:41;;;;;;;14.50;11.60;;;;;;;;;;5031945;28;20282;-88
2021/12/02 11:55:11;;;;;;;14.87;13.27;;;;;;;;;;5031189;28;20225;-88
2021/12/02 11:57:39;;;;;;;14.43;10.03;;;;;;;;;;5031310;28;20232;-89
2021/12/02 12:00:09;;;;;;;19.53;15.87;;;;;;;;;;5031622;28;20203;-89
2021/12/02 12:02:40;;;;;;;9.47;8.23;;;;;;;;;;5031695;28;20191;-88
2021/12/02 12:05:08;;;;;;;10.20;7.90;;;;;;;;;;5031570;28;20201;-89
2021/12/02 12:07:43;;;;;;;15.73;9.63;;;;;;;;;;5031728;28;20204;-88
2021/12/02 12:10:20;;;;;;;8.33;6.47;;;;;;;;;;5031455;28;20662;-89
2021/12/02 12:12:48;;;;;;;7.27;5.17;;;;;;;;;;5031555;28;20197;-89
2021/12/02 12:15:36;;;;;;;6.00;4.47;;;;;;;;;;5030960;28;20258;-89
2021/12/02 12:18:06;;;;;;;4.10;3.70;;;;;;;;;;5030981;28;20242;-88
2021/12/02 12:20:59;;;;;;;3.40;3.10;;;;;;;;;;5031953;28;20187;-88
2021/12/02 12:23:48;;;;;;;3.37;3.10;;;;;;;;;;5030883;28;20227;-89
2021/12/02 12:26:33;;;;;;;4.90;3.77;;;;;;;;;;5030745;28;20230;-88
2021/12/02 12:29:33;;;;;;;3.93;3.30;;;;;;;;;;5031082;28;20630;-88
2021/12/02 12:32:33;;;;;;;2.73;2.53;;;;;;;;;;5031018;28;20198;-89
2021/12/02 12:35:06;;;;;;;7.60;6.07;;;;;;;;;;5030480;28;20207;-87
2021/12/02 12:40:35;;;;;;;10.70;6.80;;;;;;;;;;5030700;28;20232;-88
2021/12/02 12:43:19;;;;;;;15.80;11.00;;;;;;;;;;5030666;27;20572;-88
2021/12/02 12:45:47;;;;;;;5.97;5.37;;;;;;;;;;5034158;27;20195;-88
2021/12/02 12:48:29;;;;;;;6.67;4.57;;;;;;;;;;5030838;28;20198;-88
2021/12/02 12:51:14;;;;;;;11.63;8.60;;;;;;;;;;5030417;28;20242;-88
2021/12/02 12:53:44;;;;;;;6.10;5.00;;;;;;;;;;5030560;28;20690;-88
2021/12/02 12:56:13;;;;;;;7.57;6.07;;;;;;;;;;5030388;28;20295;-89
2021/12/02 12:58:58;;;;;;;3.20;2.83;;;;;;;;;;5029364;28;20255;-88
2021/12/02 13:01:26;;;;;;;14.83;9.87;;;;;;;;;;5030366;28;20194;-89
2021/12/02 13:04:13;;;;;;;8.57;5.80;;;;;;;;;;5030528;28;20629;-88
2021/12/02 13:07:09;;;;;;;5.93;4.00;;;;;;;;;;5030583;28;20215;-89
2021/12/02 13:09:46;;;;;;;7.73;4.40;;;;;;;;;;5023093;27;20199;-89
2021/12/02 13:12:18;;;;;;;2.83;2.63;;;;;;;;;;5030128;28;20186;-89
2021/12/02 13:14:47;;;;;;;3.03;2.53;;;;;;;;;;5030103;28;20198;-89
2021/12/02 13:17:36;;;;;;;4.03;3.63;;;;;;;;;;5030088;28;20248;-89
2021/12/02 13:20:16;;;;;;;2.83;2.40;;;;;;;;;;5030172;28;20573;-88
2021/12/02 13:22:45;;;;;;;23.03;18.17;;;;;;;;;;5030400;28;20187;-89
2021/12/02 13:25:26;;;;;;;18.27;14.03;;;;;;;;;;5030412;28;20251;-89
2021/12/02 13:27:53;;;;;;;14.20;11.67;;;;;;;;;;5030417;28;20198;-89
2021/12/02 13:30:20;;;;;;;10.17;9.13;;;;;;;;;;5030303;28;20200;-89
2021/12/02 13:32:50;;;;;;;14.93;12.13;;;;;;;;;;5029928;28;20198;-89
2021/12/02 13:35:27;;;;;;;16.47;11.70;;;;;;;;;;5030422;28;20226;-89
2021/12/02 13:38:04;;;;;;;26.43;17.77;;;;;;;;;;5029859;28;20195;-88
2021/12/02 13:40:35;;;;;;;14.33;12.83;;;;;;;;;;5029749;28;20230;-88
2021/12/02 13:43:03;;;;;;;22.37;17.20;;;;;;;;;;5029822;28;20209;-89
2021/12/02 13:45:31;;;;;;;19.10;15.27;;;;;;;;;;5029767;28;20197;-89
2021/12/02 13:48:12;;;;;;;33.60;25.83;;;;;;;;;;5029776;28;20285;-89
2021/12/02 13:50:42;;;;;;;69.80;51.53;;;;;;;;;;5029688;28;20283;-86
2021/12/02 13:53:11;;;;;;;52.50;45.20;;;;;;;;;;5029493;28;20195;-89
2021/12/02 13:55:40;;;;;;;37.00;33.03;;;;;;;;;;5029533;28;20258;-88
2021/12/02 13:58:18;;;;;;;27.43;23.57;;;;;;;;;;5029570;28;20242;-88
2021/12/02 14:00:47;;;;;;;14.50;13.10;;;;;;;;;;5030333;28;20628;-88
2021/12/02 14:03:16;;;;;;;15.70;12.17;;;;;;;;;;5030129;28;20223;-88
2021/12/02 14:05:46;;;;;;;12.10;10.13;;;;;;;;;;5029463;28;20202;-88
2021/12/02 14:08:16;;;;;;;16.67;10.80;;;;;;;;;;5030007;28;20191;-88
2021/12/02 14:10:44;;;;;;;25.33;20.07;;;;;;;;;;5032284;28;20200;-89
2021/12/02 14:13:13;;;;;;;10.43;9.23;;;;;;;;;;5033007;28;20202;-88
2021/12/02 14:15:42;;;;;;;12.93;9.70;;;;;;;;;;5032938;28;20742;-89
2021/12/02 14:18:11;;;;;;;24.60;13.27;;;;;;;;;;5033027;28;20679;-89
2021/12/02 14:20:40;;;;;;;60.27;36.33;;;;;;;;;;5033176;28;20202;-88
2021/12/02 14:23:09;;;;;;;73.00;45.63;;;;;;;;;;5032981;28;20203;-89
2021/12/02 14:25:39;;;;;;;46.87;29.07;;;;;;;;;;5033217;28;20639;-88
2021/12/02 14:28:20;;;;;;;53.87;32.53;;;;;;;;;;5032719;28;20191;-89
2021/12/02 14:30:50;;;;;;;66.20;41.23;;;;;;;;;;5032579;28;20191;-88
2021/12/02 14:33:20;;;;;;;29.03;20.83;;;;;;;;;;5032538;28;20205;-88
2021/12/02 14:35:50;;;;;;;32.23;20.70;;;;;;;;;;5033066;28;20253;-88
2021/12/02 14:38:20;;;;;;;31.37;21.93;;;;;;;;;;5032498;28;20216;-88
2021/12/02 14:40:53;;;;;;;33.57;23.13;;;;;;;;;;5032543;28;20283;-89
2021/12/02 14:43:22;;;;;;;28.93;18.63;;;;;;;;;;5032925;28;20188;-88
2021/12/02 14:45:51;;;;;;;16.87;10.47;;;;;;;;;;5032664;28;20205;-88
2021/12/02 14:48:23;;;;;;;15.20;13.00;;;;;;;;;;5032781;28;20230;-88
2021/12/02 14:51:01;;;;;;;69.17;51.87;;;;;;;;;;5031528;28;20240;-88
2021/12/02 14:53:31;;;;;;;35.03;25.63;;;;;;;;;;5032075;28;20289;-88
2021/12/02 14:56:04;;;;;;;45.37;32.40;;;;;;;;;;5032378;28;20762;-88
2021/12/02 14:58:33;;;;;;;66.60;49.00;;;;;;;;;;5031200;28;20634;-88
2021/12/02 15:01:14;;;;;;;44.90;34.23;;;;;;;;;;5032048;28;20203;-88